Time;durP1;ratioP1;P1;durP2;ratioP2;P2;SDS_P1;SDS_P2;PMS_P1;PMS_P2;Temp;Humidity;BMP_temperature;BMP_pressure;BME280_temperature;BME280_humidity;BME280_pressure;Samples;Min_cycle;Max_cycle;Signal;HPM_P1;HPM_P2
2021/03/05 00:01:11;;;;;;;;;;;;;;;;;;5017799;28;19968;-88
2021/03/05 00:03:38;;;;;;;;;;;;;;;;;;5016944;28;19936;-88
2021/03/05 00:06:05;;;;;;;;;;;;;;;;;;5008042;28;19930;-86
2021/03/05 00:08:32;;;;;;;;;;;;;;;;;;5014753;28;20374;-87
2021/03/05 00:11:01;;;;;;;;;;;;;;;;;;5014558;28;19929;-86
2021/03/05 00:13:28;;;;;;;;;;;;;;;;;;5016136;28;20270;-87
2021/03/05 00:15:55;;;;;;;;;;;;;;;;;;5015144;28;20020;-88
2021/03/05 00:18:22;;;;;;;;;;;;;;;;;;5015783;28;19956;-86
2021/03/05 00:20:50;;;;;;;;;;;;;;;;;;5015530;28;20142;-88
2021/03/05 00:23:17;;;;;;;;;;;;;;;;;;5016066;28;20276;-87
2021/03/05 00:25:44;;;;;;;;;;;;;;;;;;5016388;28;20030;-88
2021/03/05 00:28:12;;;;;;;;;;;;;;;;;;5015045;28;20369;-88
2021/03/05 00:30:39;;;;;;;;;;;;;;;;;;5015809;28;19977;-87
2021/03/05 00:33:06;;;;;;;;;;;;;;;;;;5015311;28;19925;-88
2021/03/05 00:35:50;;;;;;;;;;;;;;;;;;5015567;28;20300;-88
2021/03/05 00:38:17;;;;;;;;;;;;;;;;;;5014707;28;19985;-88
2021/03/05 00:40:45;;;;;;;;;;;;;;;;;;5014770;28;20473;-87
2021/03/05 00:43:12;;;;;;;;;;;;;;;;;;5014084;28;20005;-88
2021/03/05 00:45:39;;;;;;;;;;;;;;;;;;5014854;28;19980;-87
2021/03/05 00:48:06;;;;;;;;;;;;;;;;;;5014247;28;20008;-87
2021/03/05 00:50:33;;;;;;;;;;;;;;;;;;5014158;28;19968;-89
2021/03/05 00:53:00;;;;;;;;;;;;;;;;;;5013864;28;20029;-88
2021/03/05 00:55:28;;;;;;;;;;;;;;;;;;5014201;28;19979;-88
2021/03/05 00:57:56;;;;;;;;;;;;;;;;;;5014076;28;19980;-88
2021/03/05 01:00:23;;;;;;;;;;;;;;;;;;5014271;28;19925;-88
2021/03/05 01:02:50;;;;;;;;;;;;;;;;;;5013652;28;20025;-88
2021/03/05 01:05:20;;;;;;;;;;;;;;;;;;5014897;28;19925;-87
2021/03/05 01:07:47;;;;;;;;;;;;;;;;;;5013571;28;20441;-88
2021/03/05 01:10:14;;;;;;;;;;;;;;;;;;5014366;28;20016;-88
2021/03/05 01:12:42;;;;;;;;;;;;;;;;;;5014576;28;20276;-88
2021/03/05 01:15:09;;;;;;;;;;;;;;;;;;5013719;28;20377;-88
2021/03/05 01:17:36;;;;;;;;;;;;;;;;;;5013943;28;19976;-88
2021/03/05 01:20:03;;;;;;;;;;;;;;;;;;5012902;28;19929;-88
2021/03/05 01:22:30;;;;;;;;;;;;;;;;;;5015159;28;20020;-88
2021/03/05 01:24:57;;;;;;;;;;;;;;;;;;5014482;28;19941;-88
2021/03/05 01:27:24;;;;;;;;;;;;;;;;;;5014803;28;20044;-88
2021/03/05 01:29:52;;;;;;;;;;;;;;;;;;5013934;28;20016;-88
2021/03/05 01:32:19;;;;;;;;;;;;;;;;;;5015654;28;19982;-88
2021/03/05 01:34:46;;;;;;;;;;;;;;;;;;5014925;28;19929;-88
2021/03/05 01:37:13;;;;;;;;;;;;;;;;;;5014689;28;20013;-88
2021/03/05 01:39:40;;;;;;;;;;;;;;;;;;5013403;28;19980;-89
2021/03/05 01:42:07;;;;;;;;;;;;;;;;;;5013760;28;20454;-88
2021/03/05 01:44:34;;;;;;;;;;;;;;;;;;5013190;28;19968;-88
2021/03/05 01:47:01;;;;;;;;;;;;;;;;;;5012692;28;19956;-88
2021/03/05 01:49:29;;;;;;;;;;;;;;;;;;5013436;28;19932;-88
2021/03/05 01:51:56;;;;;;;;;;;;;;;;;;5014375;28;19935;-89
2021/03/05 01:54:23;;;;;;;;;;;;;;;;;;5012310;28;20350;-87
2021/03/05 01:56:50;;;;;;;;;;;;;;;;;;5013709;28;20016;-88
2021/03/05 01:59:17;;;;;;;;;;;;;;;;;;5012567;28;20021;-87
2021/03/05 02:01:44;;;;;;;;;;;;;;;;;;5016025;23;20008;-67
2021/03/05 02:04:12;;;;;;;;;;;;;;;;;;4973617;28;19933;-67
2021/03/05 02:06:58;;;;;;;;;;;;;;;;;;4967985;28;19930;-67
2021/03/05 02:09:25;;;;;;;;;;;;;;;;;;4967257;28;20025;-68
2021/03/05 02:11:52;;;;;;;;;;;;;;;;;;4970252;28;19961;-67
2021/03/05 02:14:19;;;;;;;;;;;;;;;;;;4969247;28;20400;-67
2021/03/05 02:16:46;;;;;;;;;;;;;;;;;;4969712;28;19952;-69
2021/03/05 02:19:14;;;;;;;;;;;;;;;;;;4970043;28;20057;-69
2021/03/05 02:21:41;;;;;;;;;;;;;;;;;;4969502;28;19926;-68
2021/03/05 02:24:08;;;;;;;;;;;;;;;;;;4969452;28;20424;-68
2021/03/05 02:26:35;;;;;;;;;;;;;;;;;;4969389;28;19982;-67
2021/03/05 02:29:02;;;;;;;;;;;;;;;;;;4969285;28;20020;-67
2021/03/05 02:31:29;;;;;;;;;;;;;;;;;;4969652;28;20012;-67
2021/03/05 02:33:56;;;;;;;;;;;;;;;;;;4968241;28;19941;-67
2021/03/05 02:36:23;;;;;;;;;;;;;;;;;;4968904;28;19934;-68
2021/03/05 02:38:50;;;;;;;;;;;;;;;;;;4968213;28;20057;-69
2021/03/05 02:41:18;;;;;;;;;;;;;;;;;;4968796;28;19926;-67
2021/03/05 02:43:45;;;;;;;;;;;;;;;;;;4969338;28;20020;-68
2021/03/05 02:46:12;;;;;;;;;;;;;;;;;;4969017;28;20473;-68
2021/03/05 02:48:39;;;;;;;;;;;;;;;;;;4968459;28;20013;-68
2021/03/05 02:51:06;;;;;;;;;;;;;;;;;;4969803;28;20136;-67
2021/03/05 02:53:33;;;;;;;;;;;;;;;;;;4968808;28;20016;-67
2021/03/05 02:56:00;;;;;;;;;;;;;;;;;;4968820;28;19926;-67
2021/03/05 02:58:28;;;;;;;;;;;;;;;;;;4968113;28;20016;-67
2021/03/05 03:00:55;;;;;;;;;;;;;;;;;;4968972;28;20376;-67
2021/03/05 03:03:22;;;;;;;;;;;;;;;;;;4965751;28;19969;-67
2021/03/05 03:05:50;;;;;;;;;;;;;;;;;;4969124;28;20005;-66
2021/03/05 03:08:17;;;;;;;;;;;;;;;;;;4975144;28;20019;-67
2021/03/05 03:10:44;;;;;;;;;;;;;;;;;;4974955;28;19969;-68
2021/03/05 03:13:11;;;;;;;;;;;;;;;;;;4969520;28;19973;-68
2021/03/05 03:15:38;;;;;;;;;;;;;;;;;;4968846;28;19930;-68
2021/03/05 03:18:06;;;;;;;;;;;;;;;;;;4968388;28;20287;-68
2021/03/05 03:20:33;;;;;;;;;;;;;;;;;;4950011;29;20381;-67
2021/03/05 03:23:00;;;;;;;;;;;;;;;;;;4966205;28;20389;-67
2021/03/05 03:25:27;;;;;;;;;;;;;;;;;;4969726;28;20025;-67
2021/03/05 03:27:55;;;;;;;;;;;;;;;;;;4968301;28;20029;-67
2021/03/05 03:30:22;;;;;;;;;;;;;;;;;;4950652;28;20001;-67
2021/03/05 03:32:49;;;;;;;;;;;;;;;;;;4960316;28;19930;-67
2021/03/05 03:35:16;;;;;;;;;;;;;;;;;;4969400;28;20013;-70
2021/03/05 03:37:43;;;;;;;;;;;;;;;;;;4967878;28;19930;-70
2021/03/05 03:40:10;;;;;;;;;;;;;;;;;;4969113;28;19977;-68
2021/03/05 03:42:37;;;;;;;;;;;;;;;;;;4968589;28;19930;-67
2021/03/05 03:45:04;;;;;;;;;;;;;;;;;;4969851;28;19952;-67
2021/03/05 03:47:32;;;;;;;;;;;;;;;;;;4972276;28;20689;-67
2021/03/05 03:49:59;;;;;;;;;;;;;;;;;;4970924;28;20764;-69
2021/03/05 03:52:26;;;;;;;;;;;;;;;;;;4974254;28;20021;-68
2021/03/05 03:54:53;;;;;;;;;;;;;;;;;;4987595;28;19968;-68
2021/03/05 03:57:20;;;;;;;;;;;;;;;;;;4978023;28;20030;-67
2021/03/05 03:59:47;;;;;;;;;;;;;;;;;;4971825;28;20297;-67
2021/03/05 04:02:14;;;;;;;;;;;;;;;;;;4971781;28;20024;-67
2021/03/05 04:04:41;;;;;;;;;;;;;;;;;;4953878;28;20008;-69
2021/03/05 04:07:08;;;;;;;;;;;;;;;;;;4971580;28;20364;-68
2021/03/05 04:09:35;;;;;;;;;;;;;;;;;;4968763;28;20048;-67
2021/03/05 04:12:03;;;;;;;;;;;;;;;;;;4971445;28;20425;-67
2021/03/05 04:14:30;;;;;;;;;;;;;;;;;;4972277;28;19969;-67
2021/03/05 04:16:57;;;;;;;;;;;;;;;;;;4971288;28;19960;-67
2021/03/05 04:19:24;;;;;;;;;;;;;;;;;;4970647;28;19997;-68
2021/03/05 04:21:51;;;;;;;;;;;;;;;;;;4967278;28;19938;-71
2021/03/05 04:24:18;;;;;;;;;;;;;;;;;;4968545;28;19940;-67
2021/03/05 04:26:45;;;;;;;;;;;;;;;;;;4967702;28;19934;-69
2021/03/05 04:29:13;;;;;;;;;;;;;;;;;;4971187;28;20474;-68
2021/03/05 04:31:40;;;;;;;;;;;;;;;;;;4970744;28;19930;-68
2021/03/05 04:34:07;;;;;;;;;;;;;;;;;;4972118;28;20472;-68
2021/03/05 04:36:34;;;;;;;;;;;;;;;;;;4970022;28;20021;-69
2021/03/05 04:39:04;;;;;;;;;;;;;;;;;;4971074;28;19930;-68
2021/03/05 04:41:31;;;;;;;;;;;;;;;;;;4970733;28;19926;-68
2021/03/05 04:43:58;;;;;;;;;;;;;;;;;;4971919;28;19926;-69
2021/03/05 04:46:25;;;;;;;;;;;;;;;;;;4971114;28;19937;-68
2021/03/05 04:48:53;;;;;;;;;;;;;;;;;;4971082;28;19932;-70
2021/03/05 04:51:20;;;;;;;;;;;;;;;;;;4972746;28;19930;-67
2021/03/05 04:53:47;;;;;;;;;;;;;;;;;;4976026;28;19934;-69
2021/03/05 04:56:14;;;;;;;;;;;;;;;;;;4969973;28;19977;-70
2021/03/05 04:58:42;;;;;;;;;;;;;;;;;;4973090;28;19965;-68
2021/03/05 05:01:09;;;;;;;;;;;;;;;;;;4980294;28;20003;-67
2021/03/05 05:03:36;;;;;;;;;;;;;;;;;;4970883;28;19930;-67
2021/03/05 05:06:03;;;;;;;;;;;;;;;;;;4971292;28;19930;-68
2021/03/05 05:08:30;;;;;;;;;;;;;;;;;;4969978;28;19926;-67
2021/03/05 05:10:57;;;;;;;;;;;;;;;;;;4970600;28;20025;-69
2021/03/05 05:13:24;;;;;;;;;;;;;;;;;;4970780;28;20037;-68
2021/03/05 05:15:51;;;;;;;;;;;;;;;;;;4975641;28;19993;-68
2021/03/05 05:18:18;;;;;;;;;;;;;;;;;;4970042;28;20022;-67
2021/03/05 05:20:46;;;;;;;;;;;;;;;;;;4970866;28;19933;-70
2021/03/05 05:23:13;;;;;;;;;;;;;;;;;;4969760;28;20028;-66
2021/03/05 05:25:40;;;;;;;;;;;;;;;;;;4969069;28;19937;-67
2021/03/05 05:28:07;;;;;;;;;;;;;;;;;;4969940;28;20017;-67
2021/03/05 05:30:34;;;;;;;;;;;;;;;;;;4970872;28;19962;-67
2021/03/05 05:33:01;;;;;;;;;;;;;;;;;;4971448;28;20020;-67
2021/03/05 05:35:32;;;;;;;;;;;;;;;;;;4970333;28;19958;-67
2021/03/05 05:37:59;;;;;;;;;;;;;;;;;;4969940;28;19944;-68
2021/03/05 05:40:26;;;;;;;;;;;;;;;;;;4970373;28;20277;-67
2021/03/05 05:42:53;;;;;;;;;;;;;;;;;;4970011;28;19930;-67
2021/03/05 05:45:21;;;;;;;;;;;;;;;;;;4969942;28;20009;-67
2021/03/05 05:47:48;;;;;;;;;;;;;;;;;;4970066;28;20329;-69
2021/03/05 05:50:15;;;;;;;;;;;;;;;;;;4970220;28;19933;-68
2021/03/05 05:52:42;;;;;;;;;;;;;;;;;;4970463;28;19932;-68
2021/03/05 05:55:10;;;;;;;;;;;;;;;;;;4970387;28;19973;-69
2021/03/05 05:57:37;;;;;;;;;;;;;;;;;;4970075;28;19961;-68
2021/03/05 06:00:05;;;;;;;;;;;;;;;;;;4970216;28;20050;-68
2021/03/05 06:02:32;;;;;;;;;;;;;;;;;;4968458;28;19926;-70
2021/03/05 06:04:59;;;;;;;;;;;;;;;;;;4969984;28;20000;-68
2021/03/05 06:07:27;;;;;;;;;;;;;;;;;;4967838;28;19930;-68
2021/03/05 06:10:04;;;;;;;;;;;;;;;;;;4949407;28;20493;-69
2021/03/05 06:12:31;;;;;;;;;;;;;;;;;;4969514;28;20025;-67
2021/03/05 06:14:59;;;;;;;;;;;;;;;;;;4962223;28;19926;-68
2021/03/05 06:17:26;;;;;;;;;;;;;;;;;;4970380;28;20016;-68
2021/03/05 06:19:54;;;;;;;;;;;;;;;;;;4968807;28;20045;-69
2021/03/05 06:22:21;;;;;;;;;;;;;;;;;;4969868;28;19981;-69
2021/03/05 06:24:48;;;;;;;;;;;;;;;;;;4965185;28;19930;-68
2021/03/05 06:27:15;;;;;;;;;;;;;;;;;;4967221;28;20288;-68
2021/03/05 06:29:42;;;;;;;;;;;;;;;;;;4963937;28;19961;-67
2021/03/05 06:32:09;;;;;;;;;;;;;;;;;;4968818;28;20415;-68
2021/03/05 06:34:37;;;;;;;;;;;;;;;;;;4966227;28;19977;-70
2021/03/05 06:37:04;;;;;;;;;;;;;;;;;;4969760;28;19930;-68
2021/03/05 06:39:31;;;;;;;;;;;;;;;;;;4963872;28;20358;-66
2021/03/05 06:41:59;;;;;;;;;;;;;;;;;;4968783;28;20011;-66
2021/03/05 06:44:26;;;;;;;;;;;;;;;;;;4966002;28;19984;-67
2021/03/05 06:46:53;;;;;;;;;;;;;;;;;;4960991;28;19930;-67
2021/03/05 06:49:21;;;;;;;;;;;;;;;;;;4964581;28;19932;-64
2021/03/05 06:51:48;;;;;;;;;;;;;;;;;;4970347;28;20361;-66
2021/03/05 06:54:15;;;;;;;;;;;;;;;;;;4965713;28;19937;-65
2021/03/05 06:56:43;;;;;;;;;;;;;;;;;;4953895;28;19965;-65
2021/03/05 06:59:10;;;;;;;;;;;;;;;;;;4956218;28;20056;-65
2021/03/05 07:01:37;;;;;;;;;;;;;;;;;;4959745;28;19940;-64
2021/03/05 07:04:04;;;;;;;;;;;;;;;;;;4965235;28;19929;-65
2021/03/05 07:06:32;;;;;;;;;;;;;;;;;;4964728;28;19927;-65
2021/03/05 07:09:00;;;;;;;;;;;;;;;;;;4966917;28;19998;-64
2021/03/05 07:11:27;;;;;;;;;;;;;;;;;;4968100;28;20332;-64
2021/03/05 07:13:55;;;;;;;;;;;;;;;;;;4963919;28;19933;-65
2021/03/05 07:16:22;;;;;;;;;;;;;;;;;;4964886;28;20342;-65
2021/03/05 07:18:50;;;;;;;;;;;;;;;;;;4963709;28;20050;-64
2021/03/05 07:21:17;;;;;;;;;;;;;;;;;;4962687;28;20033;-65
2021/03/05 07:23:44;;;;;;;;;;;;;;;;;;4969259;28;19934;-64
2021/03/05 07:26:12;;;;;;;;;;;;;;;;;;4968996;28;20351;-65
2021/03/05 07:28:39;;;;;;;;;;;;;;;;;;4966387;28;19961;-64
2021/03/05 07:31:06;;;;;;;;;;;;;;;;;;4968433;28;20000;-65
2021/03/05 07:33:33;;;;;;;;;;;;;;;;;;4968207;28;19957;-65
2021/03/05 07:36:01;;;;;;;;;;;;;;;;;;4964255;28;20094;-65
2021/03/05 07:38:28;;;;;;;;;;;;;;;;;;4967210;28;19965;-65
2021/03/05 07:41:08;;;;;;;;;;;;;;;;;;4968605;28;19930;-65
2021/03/05 07:43:36;;;;;;;;;;;;;;;;;;4967654;28;20300;-65
2021/03/05 07:46:03;;;;;;;;;;;;;;;;;;4966760;28;20350;-65
2021/03/05 07:48:30;;;;;;;;;;;;;;;;;;4966761;28;19953;-66
2021/03/05 07:50:58;;;;;;;;;;;;;;;;;;4964785;28;19937;-66
2021/03/05 07:53:26;;;;;;;;;;;;;;;;;;4975812;28;19941;-65
2021/03/05 07:55:53;;;;;;;;;;;;;;;;;;4968426;28;19977;-63
2021/03/05 07:58:20;;;;;;;;;;;;;;;;;;4966157;28;20012;-64
2021/03/05 08:00:48;;;;;;;;;;;;;;;;;;4966804;28;19941;-65
2021/03/05 08:03:17;;;;;;;;;;;;;;;;;;4967254;28;19930;-65
2021/03/05 08:05:46;;;;;;;;;;;;;;;;;;4964590;28;20491;-66
2021/03/05 08:08:13;;;;;;;;;;;;;;;;;;4965655;28;19937;-65
2021/03/05 08:10:41;;;;;;;;;;;;;;;;;;4967204;28;20017;-64
2021/03/05 08:13:08;;;;;;;;;;;;;;;;;;4963935;28;19934;-65
2021/03/05 08:15:36;;;;;;;;;;;;;;;;;;4969065;28;19940;-65
2021/03/05 08:18:04;;;;;;;;;;;;;;;;;;4966547;28;19973;-65
2021/03/05 08:20:31;;;;;;;;;;;;;;;;;;4966965;28;19965;-65
2021/03/05 08:23:01;;;;;;;;;;;;;;;;;;4967160;28;19934;-65
2021/03/05 08:25:29;;;;;;;;;;;;;;;;;;4966032;28;20433;-65
2021/03/05 08:27:56;;;;;;;;;;;;;;;;;;4962830;28;19930;-65
2021/03/05 08:30:23;;;;;;;;;;;;;;;;;;4966566;28;19937;-65
2021/03/05 08:32:51;;;;;;;;;;;;;;;;;;4966097;28;19934;-65
2021/03/05 08:35:19;;;;;;;;;;;;;;;;;;4966775;28;19941;-65
2021/03/05 08:37:46;;;;;;;;;;;;;;;;;;4965730;28;19936;-67
2021/03/05 08:40:17;;;;;;;;;;;;;;;;;;4966673;28;19937;-65
2021/03/05 08:42:45;;;;;;;;;;;;;;;;;;4966047;28;19930;-65
2021/03/05 08:45:13;;;;;;;;;;;;;;;;;;4968232;28;19993;-65
2021/03/05 08:47:40;;;;;;;;;;;;;;;;;;4970572;28;19930;-66
2021/03/05 08:50:08;;;;;;;;;;;;;;;;;;4966647;28;19960;-65
2021/03/05 08:52:36;;;;;;;;;;;;;;;;;;4965855;28;19930;-66
2021/03/05 08:55:04;;;;;;;;;;;;;;;;;;4966654;28;19960;-66
2021/03/05 08:57:32;;;;;;;;;;;;;;;;;;4965573;28;20390;-65
2021/03/05 09:00:00;;;;;;;;;;;;;;;;;;4965181;28;21024;-64
2021/03/05 09:02:29;;;;;;;;;;;;;;;;;;4965405;28;19930;-65
2021/03/05 09:04:57;;;;;;;;;;;;;;;;;;4965853;28;20409;-64
2021/03/05 09:07:25;;;;;;;;;;;;;;;;;;4965254;28;19934;-65
2021/03/05 09:09:53;;;;;;;;;;;;;;;;;;4962990;28;20393;-65
2021/03/05 09:12:22;;;;;;;;;;;;;;;;;;4978209;28;20389;-66
2021/03/05 09:14:49;;;;;;;;;;;;;;;;;;4965174;28;19930;-65
2021/03/05 09:17:17;;;;;;;;;;;;;;;;;;4964217;28;19934;-66
2021/03/05 09:19:44;;;;;;;;;;;;;;;;;;4965252;28;19934;-65
2021/03/05 09:22:12;;;;;;;;;;;;;;;;;;4965032;28;19969;-64
2021/03/05 09:24:39;;;;;;;;;;;;;;;;;;4965139;28;20017;-65
2021/03/05 09:27:07;;;;;;;;;;;;;;;;;;4965750;28;19937;-65
2021/03/05 09:29:34;;;;;;;;;;;;;;;;;;4961350;28;19937;-66
2021/03/05 09:32:02;;;;;;;;;;;;;;;;;;4965440;28;19930;-66
2021/03/05 09:34:30;;;;;;;;;;;;;;;;;;4963662;28;19934;-65
2021/03/05 09:36:57;;;;;;;;;;;;;;;;;;4965472;28;20535;-65
2021/03/05 09:39:24;;;;;;;;;;;;;;;;;;4963314;28;19930;-65
2021/03/05 09:41:52;;;;;;;;;;;;;;;;;;4965157;28;19940;-65
2021/03/05 09:44:20;;;;;;;;;;;;;;;;;;4964642;28;19930;-65
2021/03/05 09:46:47;;;;;;;;;;;;;;;;;;4965738;28;20385;-65
2021/03/05 09:49:15;;;;;;;;;;;;;;;;;;4963170;28;19997;-65
2021/03/05 09:51:43;;;;;;;;;;;;;;;;;;4971740;28;19929;-67
2021/03/05 09:54:11;;;;;;;;;;;;;;;;;;4965538;28;20059;-66
2021/03/05 09:56:38;;;;;;;;;;;;;;;;;;4965687;28;19937;-67
2021/03/05 09:59:06;;;;;;;;;;;;;;;;;;4964362;28;19926;-68
2021/03/05 10:01:33;;;;;;;;;;;;;;;;;;4966780;28;20009;-67
2021/03/05 10:04:01;;;;;;;;;;;;;;;;;;4965101;28;19985;-67
2021/03/05 10:06:29;;;;;;;;;;;;;;;;;;4967216;28;20345;-66
2021/03/05 10:08:56;;;;;;;;;;;;;;;;;;4968245;28;19930;-66
2021/03/05 10:11:23;;;;;;;;;;;;;;;;;;4968537;28;19930;-68
2021/03/05 10:13:51;;;;;;;;;;;;;;;;;;4965983;28;20378;-68
2021/03/05 10:16:18;;;;;;;;;;;;;;;;;;4968385;28;19938;-69
2021/03/05 10:18:46;;;;;;;;;;;;;;;;;;4964535;28;19930;-67
2021/03/05 10:21:13;;;;;;;;;;;;;;;;;;4966889;28;20334;-67
2021/03/05 10:23:41;;;;;;;;;;;;;;;;;;4966556;28;20101;-68
2021/03/05 10:26:08;;;;;;;;;;;;;;;;;;4965154;28;19934;-67
2021/03/05 10:28:36;;;;;;;;;;;;;;;;;;4965107;28;19934;-67
2021/03/05 10:31:04;;;;;;;;;;;;;;;;;;4963868;28;19930;-68
2021/03/05 10:33:32;;;;;;;;;;;;;;;;;;4968169;28;20024;-67
2021/03/05 10:35:59;;;;;;;;;;;;;;;;;;4966430;28;19933;-67
2021/03/05 10:38:27;;;;;;;;;;;;;;;;;;4967616;28;19957;-69
2021/03/05 10:40:54;;;;;;;;;;;;;;;;;;4964583;28;20405;-67
2021/03/05 10:43:34;;;;;;;;;;;;;;;;;;4965559;28;19962;-67
2021/03/05 10:46:01;;;;;;;;;;;;;;;;;;4966617;28;20649;-68
2021/03/05 10:48:29;;;;;;;;;;;;;;;;;;4966985;28;20302;-67
2021/03/05 10:50:56;;;;;;;;;;;;;;;;;;4967226;28;20512;-67
2021/03/05 10:53:24;;;;;;;;;;;;;;;;;;4969990;28;19969;-68
2021/03/05 10:55:51;;;;;;;;;;;;;;;;;;4974306;28;20297;-67
2021/03/05 10:58:19;;;;;;;;;;;;;;;;;;4972437;28;19934;-69
2021/03/05 11:00:47;;;;;;;;;;;;;;;;;;4972227;28;20413;-68
2021/03/05 11:03:15;;;;;;;;;;;;;;;;;;4971424;28;19949;-67
2021/03/05 11:05:42;;;;;;;;;;;;;;;;;;4973082;28;20472;-68
2021/03/05 11:08:10;;;;;;;;;;;;;;;;;;4971605;28;19945;-68
2021/03/05 11:10:37;;;;;;;;;;;;;;;;;;4972682;28;19934;-67
2021/03/05 11:13:05;;;;;;;;;;;;;;;;;;4971874;28;20017;-67
2021/03/05 11:15:33;;;;;;;;;;;;;;;;;;4969299;28;19993;-66
2021/03/05 11:18:00;;;;;;;;;;;;;;;;;;4972815;28;19926;-66
2021/03/05 11:20:28;;;;;;;;;;;;;;;;;;4973498;28;19934;-66
2021/03/05 11:22:55;;;;;;;;;;;;;;;;;;4972615;28;20398;-66
2021/03/05 11:25:22;;;;;;;;;;;;;;;;;;4972566;28;20033;-66
2021/03/05 11:27:50;;;;;;;;;;;;;;;;;;4974424;28;20013;-67
2021/03/05 11:30:17;;;;;;;;;;;;;;;;;;4971869;28;20378;-68
2021/03/05 11:32:46;;;;;;;;;;;;;;;;;;4970720;28;20377;-66
2021/03/05 11:35:14;;;;;;;;;;;;;;;;;;4968444;28;20027;-68
2021/03/05 11:37:41;;;;;;;;;;;;;;;;;;4969879;28;19938;-67
2021/03/05 11:40:09;;;;;;;;;;;;;;;;;;4973209;28;20380;-69
2021/03/05 11:42:37;;;;;;;;;;;;;;;;;;4974089;28;19930;-67
2021/03/05 11:45:05;;;;;;;;;;;;;;;;;;4974621;28;20247;-68
2021/03/05 11:47:33;;;;;;;;;;;;;;;;;;4972223;28;19969;-65
2021/03/05 11:50:00;;;;;;;;;;;;;;;;;;4967339;28;20012;-67
2021/03/05 11:52:28;;;;;;;;;;;;;;;;;;4973791;28;20438;-66
2021/03/05 11:54:56;;;;;;;;;;;;;;;;;;4973688;28;20317;-68
2021/03/05 11:57:24;;;;;;;;;;;;;;;;;;4971990;28;19938;-66
2021/03/05 11:59:51;;;;;;;;;;;;;;;;;;4971384;28;20004;-65
2021/03/05 12:02:19;;;;;;;;;;;;;;;;;;4971242;28;19973;-69
2021/03/05 12:04:46;;;;;;;;;;;;;;;;;;4970567;28;19926;-66
2021/03/05 12:07:13;;;;;;;;;;;;;;;;;;4970589;28;19930;-66
2021/03/05 12:09:40;;;;;;;;;;;;;;;;;;4974669;28;20008;-65
2021/03/05 12:12:08;;;;;;;;;;;;;;;;;;4970634;28;20373;-65
2021/03/05 12:14:39;;;;;;;;;;;;;;;;;;4968928;28;19937;-66
2021/03/05 12:17:07;;;;;;;;;;;;;;;;;;4967603;28;19981;-68
2021/03/05 12:19:35;;;;;;;;;;;;;;;;;;4960433;28;20000;-67
2021/03/05 12:22:02;;;;;;;;;;;;;;;;;;4967034;28;20329;-66
2021/03/05 12:24:29;;;;;;;;;;;;;;;;;;4970355;28;20004;-67
2021/03/05 12:26:57;;;;;;;;;;;;;;;;;;4970760;28;19960;-66
2021/03/05 12:29:24;;;;;;;;;;;;;;;;;;4968602;28;19937;-66
2021/03/05 12:31:52;;;;;;;;;;;;;;;;;;4969828;28;19973;-66
2021/03/05 12:34:20;;;;;;;;;;;;;;;;;;4967447;28;19973;-67
2021/03/05 12:36:48;;;;;;;;;;;;;;;;;;4968901;28;20510;-69
2021/03/05 12:39:16;;;;;;;;;;;;;;;;;;4966018;28;20382;-66
2021/03/05 12:41:44;;;;;;;;;;;;;;;;;;4966477;28;20013;-66
2021/03/05 12:44:13;;;;;;;;;;;;;;;;;;4969040;28;19930;-65
2021/03/05 12:46:41;;;;;;;;;;;;;;;;;;4965861;28;19930;-66
2021/03/05 12:49:09;;;;;;;;;;;;;;;;;;4965302;28;19937;-65
2021/03/05 12:51:37;;;;;;;;;;;;;;;;;;4972407;28;20382;-65
2021/03/05 12:54:04;;;;;;;;;;;;;;;;;;4968212;28;19961;-65
2021/03/05 12:56:32;;;;;;;;;;;;;;;;;;4965668;28;19941;-67
2021/03/05 12:58:59;;;;;;;;;;;;;;;;;;4961903;28;20286;-67
2021/03/05 13:01:27;;;;;;;;;;;;;;;;;;4965016;28;20405;-65
2021/03/05 13:03:55;;;;;;;;;;;;;;;;;;4965399;28;20274;-66
2021/03/05 13:06:22;;;;;;;;;;;;;;;;;;4966409;28;20028;-66
2021/03/05 13:08:50;;;;;;;;;;;;;;;;;;4962357;28;21627;-69
2021/03/05 13:11:18;;;;;;;;;;;;;;;;;;4965558;28;20395;-68
2021/03/05 13:13:46;;;;;;;;;;;;;;;;;;4967563;28;20303;-68
2021/03/05 13:16:17;;;;;;;;;;;;;;;;;;4964592;28;19976;-67
2021/03/05 13:18:44;;;;;;;;;;;;;;;;;;4965020;28;19930;-67
2021/03/05 13:21:12;;;;;;;;;;;;;;;;;;4965617;28;19997;-65
2021/03/05 13:23:39;;;;;;;;;;;;;;;;;;4966504;28;19981;-66
2021/03/05 13:26:11;;;;;;;;;;;;;;;;;;4965755;28;19930;-66
2021/03/05 13:28:39;;;;;;;;;;;;;;;;;;4965357;28;19937;-67
2021/03/05 13:31:07;;;;;;;;;;;;;;;;;;4966670;28;19926;-67
2021/03/05 13:33:34;;;;;;;;;;;;;;;;;;4963709;28;19930;-67
2021/03/05 13:36:02;;;;;;;;;;;;;;;;;;4965823;28;19936;-68
2021/03/05 13:38:30;;;;;;;;;;;;;;;;;;4964687;28;20305;-67
2021/03/05 13:40:59;;;;;;;;;;;;;;;;;;4966445;28;19934;-66
2021/03/05 13:43:27;;;;;;;;;;;;;;;;;;4965417;28;20014;-67
2021/03/05 13:45:54;;;;;;;;;;;;;;;;;;4965022;28;19941;-66
2021/03/05 13:48:23;;;;;;;;;;;;;;;;;;4961331;28;19930;-64
2021/03/05 13:50:51;;;;;;;;;;;;;;;;;;4964602;28;19940;-65
2021/03/05 13:53:18;;;;;;;;;;;;;;;;;;4971842;28;19930;-65
2021/03/05 13:55:46;;;;;;;;;;;;;;;;;;4964641;28;20016;-66
2021/03/05 13:58:14;;;;;;;;;;;;;;;;;;4965748;28;19930;-65
2021/03/05 14:00:42;;;;;;;;;;;;;;;;;;4965656;28;20396;-65
2021/03/05 14:03:10;;;;;;;;;;;;;;;;;;4966164;28;20525;-65
2021/03/05 14:05:38;;;;;;;;;;;;;;;;;;4967462;28;19984;-65
2021/03/05 14:08:06;;;;;;;;;;;;;;;;;;4967980;28;20022;-65
2021/03/05 14:10:33;;;;;;;;;;;;;;;;;;4964923;28;20009;-65
2021/03/05 14:13:01;;;;;;;;;;;;;;;;;;4967423;28;19933;-64
2021/03/05 14:15:28;;;;;;;;;;;;;;;;;;4966885;28;19997;-65
2021/03/05 14:17:57;;;;;;;;;;;;;;;;;;4966676;28;19938;-65
2021/03/05 14:20:25;;;;;;;;;;;;;;;;;;4967052;28;19934;-65
2021/03/05 14:22:52;;;;;;;;;;;;;;;;;;4969230;28;20039;-65
2021/03/05 14:25:19;;;;;;;;;;;;;;;;;;4960986;28;19965;-65
2021/03/05 14:27:50;;;;;;;;;;;;;;;;;;4964172;28;20034;-65
2021/03/05 14:30:17;;;;;;;;;;;;;;;;;;4966345;28;19973;-65
2021/03/05 14:32:45;;;;;;;;;;;;;;;;;;4961933;28;19939;-66
2021/03/05 14:35:13;;;;;;;;;;;;;;;;;;4967237;28;20382;-66
2021/03/05 14:37:41;;;;;;;;;;;;;;;;;;4963545;28;20481;-66
2021/03/05 14:40:10;;;;;;;;;;;;;;;;;;4963087;28;19956;-65
2021/03/05 14:42:38;;;;;;;;;;;;;;;;;;4966227;28;19934;-67
2021/03/05 14:45:07;;;;;;;;;;;;;;;;;;4966182;28;19938;-66
2021/03/05 14:47:34;;;;;;;;;;;;;;;;;;4965909;28;19993;-66
2021/03/05 14:50:02;;;;;;;;;;;;;;;;;;4948039;28;20021;-65
2021/03/05 14:52:30;;;;;;;;;;;;;;;;;;4963198;28;19934;-66
2021/03/05 14:54:57;;;;;;;;;;;;;;;;;;4965763;28;20013;-66
2021/03/05 14:57:25;;;;;;;;;;;;;;;;;;4966241;28;20290;-66
2021/03/05 14:59:52;;;;;;;;;;;;;;;;;;4964618;28;19993;-66
2021/03/05 15:02:20;;;;;;;;;;;;;;;;;;4966994;28;19941;-66
2021/03/05 15:04:47;;;;;;;;;;;;;;;;;;4967392;28;20046;-66
2021/03/05 15:07:14;;;;;;;;;;;;;;;;;;4967229;28;19937;-65
2021/03/05 15:09:42;;;;;;;;;;;;;;;;;;4961370;28;19948;-66
2021/03/05 15:12:10;;;;;;;;;;;;;;;;;;4966612;28;19937;-66
2021/03/05 15:14:38;;;;;;;;;;;;;;;;;;4968218;28;20126;-66
2021/03/05 15:17:06;;;;;;;;;;;;;;;;;;4961770;28;19941;-66
2021/03/05 15:19:34;;;;;;;;;;;;;;;;;;4966348;28;19969;-66
2021/03/05 15:22:02;;;;;;;;;;;;;;;;;;4967208;28;19927;-66
2021/03/05 15:24:30;;;;;;;;;;;;;;;;;;4963745;28;19934;-66
2021/03/05 15:26:58;;;;;;;;;;;;;;;;;;4965495;28;19973;-66
2021/03/05 15:29:26;;;;;;;;;;;;;;;;;;4967396;28;20025;-66
2021/03/05 15:31:53;;;;;;;;;;;;;;;;;;4966851;28;20246;-66
2021/03/05 15:34:21;;;;;;;;;;;;;;;;;;4966806;28;20031;-65
2021/03/05 15:36:49;;;;;;;;;;;;;;;;;;4963151;28;20041;-66
2021/03/05 15:39:16;;;;;;;;;;;;;;;;;;4965587;28;20338;-66
2021/03/05 15:41:43;;;;;;;;;;;;;;;;;;4964753;28;19933;-66
2021/03/05 15:44:11;;;;;;;;;;;;;;;;;;4970235;28;19934;-66
2021/03/05 15:46:38;;;;;;;;;;;;;;;;;;4969850;28;19965;-65
2021/03/05 15:49:06;;;;;;;;;;;;;;;;;;4968943;28;19930;-66
2021/03/05 15:51:33;;;;;;;;;;;;;;;;;;4966180;28;19934;-65
2021/03/05 15:54:01;;;;;;;;;;;;;;;;;;4967470;28;20001;-65
2021/03/05 15:56:28;;;;;;;;;;;;;;;;;;4969662;28;19933;-66
2021/03/05 15:58:55;;;;;;;;;;;;;;;;;;4968124;28;19930;-65
2021/03/05 16:01:23;;;;;;;;;;;;;;;;;;4969649;28;20397;-65
2021/03/05 16:04:07;;;;;;;;;;;;;;;;;;4969454;28;20400;-65
2021/03/05 16:06:34;;;;;;;;;;;;;;;;;;4970914;28;19930;-65
2021/03/05 16:09:02;;;;;;;;;;;;;;;;;;4975016;28;19926;-66
2021/03/05 16:11:29;;;;;;;;;;;;;;;;;;4981153;28;20494;-65
2021/03/05 16:13:57;;;;;;;;;;;;;;;;;;4969162;28;19926;-65
2021/03/05 16:16:34;;;;;;;;;;;;;;;;;;4970397;28;19930;-66
2021/03/05 16:19:02;;;;;;;;;;;;;;;;;;4962219;28;19934;-66
2021/03/05 16:21:29;;;;;;;;;;;;;;;;;;4968044;28;20261;-66
2021/03/05 16:23:57;;;;;;;;;;;;;;;;;;4973967;28;19930;-66
2021/03/05 16:26:24;;;;;;;;;;;;;;;;;;4969741;28;19982;-66
2021/03/05 16:28:52;;;;;;;;;;;;;;;;;;4968002;28;19930;-65
2021/03/05 16:31:19;;;;;;;;;;;;;;;;;;4966829;28;19938;-65
2021/03/05 16:33:47;;;;;;;;;;;;;;;;;;4970684;28;19926;-65
2021/03/05 16:36:15;;;;;;;;;;;;;;;;;;4963816;28;20049;-66
2021/03/05 16:38:43;;;;;;;;;;;;;;;;;;4967620;28;20098;-66
2021/03/05 16:41:10;;;;;;;;;;;;;;;;;;4965739;28;20055;-66
2021/03/05 16:43:38;;;;;;;;;;;;;;;;;;4968541;28;20325;-66
2021/03/05 16:46:06;;;;;;;;;;;;;;;;;;4969566;28;20400;-65
2021/03/05 16:48:34;;;;;;;;;;;;;;;;;;4968386;28;19980;-65